<?xml version="1.0" encoding="UTF-8" standalone="no" ?>
<gpx xmlns="http://www.topografix.com/GPX/1/1" xmlns:xsi="http://www.w3.org/2001/XMLSchema-instance" xsi:schemaLocation="http://www.topografix.com/GPX/1/1 http://www.topografix.com/GPX/1/1/gpx.xsd" version="1.1" creator="VisuGPX - https://www.visugpx.com">
  <metadata>
    <name>Course à pied dans l'après-midi</name>
  </metadata>
  <trk>
    <name><![CDATA[Course à pied dans l'après-midi_1]]></name>
    <trkseg>
      <trkpt lat="46.83458" lon="6.40066">
        <ele>1085.3</ele>
        <time>2024-01-07T13:15:13Z</time>
      </trkpt>
      <trkpt lat="46.83457" lon="6.40067">
        <ele>1085.3</ele>
        <time>2024-01-07T13:15:14Z</time>
      </trkpt>
      <trkpt lat="46.83442" lon="6.40082">
        <ele>1085.7</ele>
        <time>2024-01-07T13:15:22Z</time>
      </trkpt>
      <trkpt lat="46.83423" lon="6.40075">
        <ele>1087.7</ele>
        <time>2024-01-07T13:15:29Z</time>
      </trkpt>
      <trkpt lat="46.83406" lon="6.40063">
        <ele>1089.6</ele>
        <time>2024-01-07T13:15:36Z</time>
      </trkpt>
      <trkpt lat="46.8339" lon="6.40062">
        <ele>1090.8</ele>
        <time>2024-01-07T13:15:45Z</time>
      </trkpt>
      <trkpt lat="46.83379" lon="6.40083">
        <ele>1090.8</ele>
        <time>2024-01-07T13:15:53Z</time>
      </trkpt>
      <trkpt lat="46.83368" lon="6.40105">
        <ele>1090.7</ele>
        <time>2024-01-07T13:16:01Z</time>
      </trkpt>
      <trkpt lat="46.83356" lon="6.4013">
        <ele>1090.6</ele>
        <time>2024-01-07T13:16:08Z</time>
      </trkpt>
      <trkpt lat="46.83347" lon="6.40154">
        <ele>1090.3</ele>
        <time>2024-01-07T13:16:14Z</time>
      </trkpt>
      <trkpt lat="46.83338" lon="6.40179">
        <ele>1090.1</ele>
        <time>2024-01-07T13:16:20Z</time>
      </trkpt>
      <trkpt lat="46.8333" lon="6.40205">
        <ele>1090</ele>
        <time>2024-01-07T13:16:26Z</time>
      </trkpt>
      <trkpt lat="46.83322" lon="6.4023">
        <ele>1090</ele>
        <time>2024-01-07T13:16:32Z</time>
      </trkpt>
      <trkpt lat="46.83314" lon="6.40257">
        <ele>1089.9</ele>
        <time>2024-01-07T13:16:39Z</time>
      </trkpt>
      <trkpt lat="46.83308" lon="6.40286">
        <ele>1089.8</ele>
        <time>2024-01-07T13:16:46Z</time>
      </trkpt>
      <trkpt lat="46.83303" lon="6.40312">
        <ele>1089.7</ele>
        <time>2024-01-07T13:16:52Z</time>
      </trkpt>
      <trkpt lat="46.83317" lon="6.40331">
        <ele>1089.7</ele>
        <time>2024-01-07T13:16:58Z</time>
      </trkpt>
      <trkpt lat="46.83334" lon="6.40346">
        <ele>1089.8</ele>
        <time>2024-01-07T13:17:06Z</time>
      </trkpt>
      <trkpt lat="46.83351" lon="6.40358">
        <ele>1090</ele>
        <time>2024-01-07T13:17:14Z</time>
      </trkpt>
      <trkpt lat="46.83366" lon="6.40375">
        <ele>1090.1</ele>
        <time>2024-01-07T13:17:20Z</time>
      </trkpt>
      <trkpt lat="46.83382" lon="6.40392">
        <ele>1090.1</ele>
        <time>2024-01-07T13:17:26Z</time>
      </trkpt>
      <trkpt lat="46.83388" lon="6.40421">
        <ele>1090.2</ele>
        <time>2024-01-07T13:17:32Z</time>
      </trkpt>
      <trkpt lat="46.83388" lon="6.40452">
        <ele>1090.1</ele>
        <time>2024-01-07T13:17:38Z</time>
      </trkpt>
      <trkpt lat="46.83388" lon="6.4048">
        <ele>1090.3</ele>
        <time>2024-01-07T13:17:44Z</time>
      </trkpt>
      <trkpt lat="46.83389" lon="6.4051">
        <ele>1090.4</ele>
        <time>2024-01-07T13:17:50Z</time>
      </trkpt>
      <trkpt lat="46.83385" lon="6.40537">
        <ele>1090.6</ele>
        <time>2024-01-07T13:17:56Z</time>
      </trkpt>
      <trkpt lat="46.83379" lon="6.40564">
        <ele>1090.7</ele>
        <time>2024-01-07T13:18:02Z</time>
      </trkpt>
      <trkpt lat="46.83375" lon="6.40594">
        <ele>1089.8</ele>
        <time>2024-01-07T13:18:09Z</time>
      </trkpt>
      <trkpt lat="46.83372" lon="6.40622">
        <ele>1089.9</ele>
        <time>2024-01-07T13:18:15Z</time>
      </trkpt>
      <trkpt lat="46.83367" lon="6.40649">
        <ele>1090.1</ele>
        <time>2024-01-07T13:18:21Z</time>
      </trkpt>
      <trkpt lat="46.83362" lon="6.40676">
        <ele>1090.1</ele>
        <time>2024-01-07T13:18:27Z</time>
      </trkpt>
      <trkpt lat="46.83356" lon="6.40701">
        <ele>1090.2</ele>
        <time>2024-01-07T13:18:33Z</time>
      </trkpt>
      <trkpt lat="46.83348" lon="6.40727">
        <ele>1090.5</ele>
        <time>2024-01-07T13:18:39Z</time>
      </trkpt>
      <trkpt lat="46.83342" lon="6.40752">
        <ele>1090.5</ele>
        <time>2024-01-07T13:18:45Z</time>
      </trkpt>
      <trkpt lat="46.83336" lon="6.40778">
        <ele>1090.9</ele>
        <time>2024-01-07T13:18:51Z</time>
      </trkpt>
      <trkpt lat="46.83333" lon="6.40806">
        <ele>1091.9</ele>
        <time>2024-01-07T13:18:57Z</time>
      </trkpt>
      <trkpt lat="46.83328" lon="6.40831">
        <ele>1092.4</ele>
        <time>2024-01-07T13:19:03Z</time>
      </trkpt>
      <trkpt lat="46.83323" lon="6.40857">
        <ele>1092.7</ele>
        <time>2024-01-07T13:19:09Z</time>
      </trkpt>
      <trkpt lat="46.83317" lon="6.40883">
        <ele>1093.3</ele>
        <time>2024-01-07T13:19:15Z</time>
      </trkpt>
      <trkpt lat="46.83312" lon="6.4091">
        <ele>1095.3</ele>
        <time>2024-01-07T13:19:22Z</time>
      </trkpt>
      <trkpt lat="46.83309" lon="6.40937">
        <ele>1097.8</ele>
        <time>2024-01-07T13:19:29Z</time>
      </trkpt>
      <trkpt lat="46.83308" lon="6.40964">
        <ele>1098.8</ele>
        <time>2024-01-07T13:19:36Z</time>
      </trkpt>
      <trkpt lat="46.83312" lon="6.40991">
        <ele>1100.1</ele>
        <time>2024-01-07T13:19:44Z</time>
      </trkpt>
      <trkpt lat="46.83314" lon="6.41018">
        <ele>1101.5</ele>
        <time>2024-01-07T13:19:52Z</time>
      </trkpt>
      <trkpt lat="46.83317" lon="6.41047">
        <ele>1103.2</ele>
        <time>2024-01-07T13:20:01Z</time>
      </trkpt>
      <trkpt lat="46.83319" lon="6.41074">
        <ele>1104.6</ele>
        <time>2024-01-07T13:20:09Z</time>
      </trkpt>
      <trkpt lat="46.83322" lon="6.41101">
        <ele>1105.5</ele>
        <time>2024-01-07T13:20:17Z</time>
      </trkpt>
      <trkpt lat="46.83328" lon="6.41127">
        <ele>1106.2</ele>
        <time>2024-01-07T13:20:24Z</time>
      </trkpt>
      <trkpt lat="46.83332" lon="6.41152">
        <ele>1107.1</ele>
        <time>2024-01-07T13:20:31Z</time>
      </trkpt>
      <trkpt lat="46.83337" lon="6.41178">
        <ele>1108.1</ele>
        <time>2024-01-07T13:20:38Z</time>
      </trkpt>
      <trkpt lat="46.83342" lon="6.41204">
        <ele>1109</ele>
        <time>2024-01-07T13:20:45Z</time>
      </trkpt>
      <trkpt lat="46.83344" lon="6.4123">
        <ele>1109.8</ele>
        <time>2024-01-07T13:20:52Z</time>
      </trkpt>
      <trkpt lat="46.83347" lon="6.41259">
        <ele>1110.6</ele>
        <time>2024-01-07T13:21:00Z</time>
      </trkpt>
      <trkpt lat="46.83348" lon="6.41288">
        <ele>1111.3</ele>
        <time>2024-01-07T13:21:08Z</time>
      </trkpt>
      <trkpt lat="46.83354" lon="6.41316">
        <ele>1111.8</ele>
        <time>2024-01-07T13:21:15Z</time>
      </trkpt>
      <trkpt lat="46.8336" lon="6.41344">
        <ele>1112.3</ele>
        <time>2024-01-07T13:21:22Z</time>
      </trkpt>
      <trkpt lat="46.83366" lon="6.41369">
        <ele>1112.8</ele>
        <time>2024-01-07T13:21:28Z</time>
      </trkpt>
      <trkpt lat="46.83372" lon="6.41398">
        <ele>1113.6</ele>
        <time>2024-01-07T13:21:35Z</time>
      </trkpt>
      <trkpt lat="46.83376" lon="6.41424">
        <ele>1114.8</ele>
        <time>2024-01-07T13:21:42Z</time>
      </trkpt>
      <trkpt lat="46.83381" lon="6.41452">
        <ele>1116.4</ele>
        <time>2024-01-07T13:21:50Z</time>
      </trkpt>
      <trkpt lat="46.83388" lon="6.41478">
        <ele>1117.9</ele>
        <time>2024-01-07T13:21:58Z</time>
      </trkpt>
      <trkpt lat="46.83395" lon="6.41505">
        <ele>1119.4</ele>
        <time>2024-01-07T13:22:06Z</time>
      </trkpt>
      <trkpt lat="46.83401" lon="6.41531">
        <ele>1120.6</ele>
        <time>2024-01-07T13:22:13Z</time>
      </trkpt>
      <trkpt lat="46.83401" lon="6.41559">
        <ele>1121.9</ele>
        <time>2024-01-07T13:22:21Z</time>
      </trkpt>
      <trkpt lat="46.83403" lon="6.41589">
        <ele>1123.1</ele>
        <time>2024-01-07T13:22:29Z</time>
      </trkpt>
      <trkpt lat="46.834" lon="6.41617">
        <ele>1124.4</ele>
        <time>2024-01-07T13:22:36Z</time>
      </trkpt>
      <trkpt lat="46.83395" lon="6.41646">
        <ele>1125.8</ele>
        <time>2024-01-07T13:22:44Z</time>
      </trkpt>
      <trkpt lat="46.83384" lon="6.4167">
        <ele>1127</ele>
        <time>2024-01-07T13:22:51Z</time>
      </trkpt>
      <trkpt lat="46.83374" lon="6.41696">
        <ele>1128.1</ele>
        <time>2024-01-07T13:22:58Z</time>
      </trkpt>
      <trkpt lat="46.83364" lon="6.41722">
        <ele>1129.3</ele>
        <time>2024-01-07T13:23:05Z</time>
      </trkpt>
      <trkpt lat="46.83355" lon="6.41749">
        <ele>1130.4</ele>
        <time>2024-01-07T13:23:12Z</time>
      </trkpt>
      <trkpt lat="46.83345" lon="6.41774">
        <ele>1131.1</ele>
        <time>2024-01-07T13:23:19Z</time>
      </trkpt>
      <trkpt lat="46.83335" lon="6.41798">
        <ele>1130.4</ele>
        <time>2024-01-07T13:23:26Z</time>
      </trkpt>
      <trkpt lat="46.83333" lon="6.41827">
        <ele>1128.5</ele>
        <time>2024-01-07T13:23:32Z</time>
      </trkpt>
      <trkpt lat="46.83335" lon="6.41854">
        <ele>1126.7</ele>
        <time>2024-01-07T13:23:38Z</time>
      </trkpt>
      <trkpt lat="46.83334" lon="6.41881">
        <ele>1125.3</ele>
        <time>2024-01-07T13:23:44Z</time>
      </trkpt>
      <trkpt lat="46.83331" lon="6.41908">
        <ele>1125</ele>
        <time>2024-01-07T13:23:51Z</time>
      </trkpt>
      <trkpt lat="46.83329" lon="6.41937">
        <ele>1124.9</ele>
        <time>2024-01-07T13:23:58Z</time>
      </trkpt>
      <trkpt lat="46.83328" lon="6.41964">
        <ele>1124.9</ele>
        <time>2024-01-07T13:24:05Z</time>
      </trkpt>
      <trkpt lat="46.83329" lon="6.41993">
        <ele>1124.9</ele>
        <time>2024-01-07T13:24:13Z</time>
      </trkpt>
      <trkpt lat="46.83328" lon="6.42023">
        <ele>1125</ele>
        <time>2024-01-07T13:24:21Z</time>
      </trkpt>
      <trkpt lat="46.83327" lon="6.42052">
        <ele>1125</ele>
        <time>2024-01-07T13:24:28Z</time>
      </trkpt>
      <trkpt lat="46.8332" lon="6.42077">
        <ele>1125</ele>
        <time>2024-01-07T13:24:35Z</time>
      </trkpt>
      <trkpt lat="46.83317" lon="6.42106">
        <ele>1124.9</ele>
        <time>2024-01-07T13:24:43Z</time>
      </trkpt>
      <trkpt lat="46.8332" lon="6.42133">
        <ele>1125.3</ele>
        <time>2024-01-07T13:24:51Z</time>
      </trkpt>
      <trkpt lat="46.83324" lon="6.42161">
        <ele>1126.1</ele>
        <time>2024-01-07T13:24:58Z</time>
      </trkpt>
      <trkpt lat="46.83328" lon="6.42188">
        <ele>1127</ele>
        <time>2024-01-07T13:25:06Z</time>
      </trkpt>
      <trkpt lat="46.83329" lon="6.42218">
        <ele>1127.4</ele>
        <time>2024-01-07T13:25:14Z</time>
      </trkpt>
      <trkpt lat="46.83322" lon="6.42245">
        <ele>1128.7</ele>
        <time>2024-01-07T13:25:22Z</time>
      </trkpt>
      <trkpt lat="46.83312" lon="6.42268">
        <ele>1132.1</ele>
        <time>2024-01-07T13:25:29Z</time>
      </trkpt>
      <trkpt lat="46.83303" lon="6.42293">
        <ele>1135.9</ele>
        <time>2024-01-07T13:25:39Z</time>
      </trkpt>
      <trkpt lat="46.83297" lon="6.42319">
        <ele>1136.7</ele>
        <time>2024-01-07T13:25:49Z</time>
      </trkpt>
      <trkpt lat="46.83297" lon="6.42348">
        <ele>1137.6</ele>
        <time>2024-01-07T13:25:58Z</time>
      </trkpt>
      <trkpt lat="46.83303" lon="6.42376">
        <ele>1138.7</ele>
        <time>2024-01-07T13:26:06Z</time>
      </trkpt>
      <trkpt lat="46.83303" lon="6.42405">
        <ele>1139.7</ele>
        <time>2024-01-07T13:26:14Z</time>
      </trkpt>
      <trkpt lat="46.83297" lon="6.4243">
        <ele>1140.6</ele>
        <time>2024-01-07T13:26:21Z</time>
      </trkpt>
      <trkpt lat="46.83287" lon="6.42457">
        <ele>1141.4</ele>
        <time>2024-01-07T13:26:28Z</time>
      </trkpt>
      <trkpt lat="46.83278" lon="6.42483">
        <ele>1141.6</ele>
        <time>2024-01-07T13:26:35Z</time>
      </trkpt>
      <trkpt lat="46.83268" lon="6.42504">
        <ele>1141.6</ele>
        <time>2024-01-07T13:26:41Z</time>
      </trkpt>
      <trkpt lat="46.83253" lon="6.42525">
        <ele>1141.4</ele>
        <time>2024-01-07T13:26:48Z</time>
      </trkpt>
      <trkpt lat="46.83237" lon="6.42542">
        <ele>1141</ele>
        <time>2024-01-07T13:26:55Z</time>
      </trkpt>
      <trkpt lat="46.8322" lon="6.42553">
        <ele>1140.7</ele>
        <time>2024-01-07T13:27:01Z</time>
      </trkpt>
      <trkpt lat="46.83206" lon="6.42573">
        <ele>1141.2</ele>
        <time>2024-01-07T13:27:08Z</time>
      </trkpt>
      <trkpt lat="46.83192" lon="6.42589">
        <ele>1140.5</ele>
        <time>2024-01-07T13:27:14Z</time>
      </trkpt>
      <trkpt lat="46.83176" lon="6.42606">
        <ele>1140</ele>
        <time>2024-01-07T13:27:20Z</time>
      </trkpt>
      <trkpt lat="46.83162" lon="6.42622">
        <ele>1139.9</ele>
        <time>2024-01-07T13:27:26Z</time>
      </trkpt>
      <trkpt lat="46.83146" lon="6.42639">
        <ele>1140</ele>
        <time>2024-01-07T13:27:33Z</time>
      </trkpt>
      <trkpt lat="46.8313" lon="6.42656">
        <ele>1140.2</ele>
        <time>2024-01-07T13:27:40Z</time>
      </trkpt>
      <trkpt lat="46.83114" lon="6.42672">
        <ele>1140.6</ele>
        <time>2024-01-07T13:27:47Z</time>
      </trkpt>
      <trkpt lat="46.831" lon="6.4269">
        <ele>1141.2</ele>
        <time>2024-01-07T13:27:54Z</time>
      </trkpt>
      <trkpt lat="46.83088" lon="6.4271">
        <ele>1141.8</ele>
        <time>2024-01-07T13:28:01Z</time>
      </trkpt>
      <trkpt lat="46.83074" lon="6.42732">
        <ele>1142.6</ele>
        <time>2024-01-07T13:28:09Z</time>
      </trkpt>
      <trkpt lat="46.83062" lon="6.42751">
        <ele>1143.5</ele>
        <time>2024-01-07T13:28:16Z</time>
      </trkpt>
      <trkpt lat="46.83047" lon="6.4277">
        <ele>1144.6</ele>
        <time>2024-01-07T13:28:24Z</time>
      </trkpt>
      <trkpt lat="46.83033" lon="6.42789">
        <ele>1145.7</ele>
        <time>2024-01-07T13:28:31Z</time>
      </trkpt>
      <trkpt lat="46.83018" lon="6.42808">
        <ele>1146.9</ele>
        <time>2024-01-07T13:28:38Z</time>
      </trkpt>
      <trkpt lat="46.83" lon="6.42824">
        <ele>1148.2</ele>
        <time>2024-01-07T13:28:45Z</time>
      </trkpt>
      <trkpt lat="46.82986" lon="6.42846">
        <ele>1149</ele>
        <time>2024-01-07T13:28:52Z</time>
      </trkpt>
      <trkpt lat="46.82971" lon="6.42866">
        <ele>1149.6</ele>
        <time>2024-01-07T13:28:59Z</time>
      </trkpt>
      <trkpt lat="46.82957" lon="6.42887">
        <ele>1150.1</ele>
        <time>2024-01-07T13:29:06Z</time>
      </trkpt>
      <trkpt lat="46.82945" lon="6.42909">
        <ele>1150.2</ele>
        <time>2024-01-07T13:29:13Z</time>
      </trkpt>
      <trkpt lat="46.82933" lon="6.42931">
        <ele>1149.8</ele>
        <time>2024-01-07T13:29:19Z</time>
      </trkpt>
      <trkpt lat="46.82919" lon="6.42949">
        <ele>1149</ele>
        <time>2024-01-07T13:29:25Z</time>
      </trkpt>
      <trkpt lat="46.82903" lon="6.42969">
        <ele>1147.8</ele>
        <time>2024-01-07T13:29:31Z</time>
      </trkpt>
      <trkpt lat="46.82888" lon="6.4299">
        <ele>1147</ele>
        <time>2024-01-07T13:29:37Z</time>
      </trkpt>
      <trkpt lat="46.82876" lon="6.43014">
        <ele>1146.6</ele>
        <time>2024-01-07T13:29:43Z</time>
      </trkpt>
      <trkpt lat="46.82863" lon="6.43038">
        <ele>1146.6</ele>
        <time>2024-01-07T13:29:50Z</time>
      </trkpt>
      <trkpt lat="46.82851" lon="6.43059">
        <ele>1146.8</ele>
        <time>2024-01-07T13:29:56Z</time>
      </trkpt>
      <trkpt lat="46.82836" lon="6.4308">
        <ele>1146.8</ele>
        <time>2024-01-07T13:30:03Z</time>
      </trkpt>
      <trkpt lat="46.82824" lon="6.431">
        <ele>1146.5</ele>
        <time>2024-01-07T13:30:09Z</time>
      </trkpt>
      <trkpt lat="46.82811" lon="6.43121">
        <ele>1145.8</ele>
        <time>2024-01-07T13:30:16Z</time>
      </trkpt>
      <trkpt lat="46.82798" lon="6.43141">
        <ele>1144.6</ele>
        <time>2024-01-07T13:30:22Z</time>
      </trkpt>
      <trkpt lat="46.82786" lon="6.43164">
        <ele>1143.3</ele>
        <time>2024-01-07T13:30:28Z</time>
      </trkpt>
      <trkpt lat="46.82779" lon="6.4319">
        <ele>1141.8</ele>
        <time>2024-01-07T13:30:34Z</time>
      </trkpt>
      <trkpt lat="46.82781" lon="6.43216">
        <ele>1141.3</ele>
        <time>2024-01-07T13:30:40Z</time>
      </trkpt>
      <trkpt lat="46.82779" lon="6.43227">
        <ele>1141.3</ele>
        <time>2024-01-07T13:30:44Z</time>
      </trkpt>
      <trkpt lat="46.8276" lon="6.43222">
        <ele>1141.9</ele>
        <time>2024-01-07T13:30:50Z</time>
      </trkpt>
      <trkpt lat="46.82742" lon="6.43216">
        <ele>1142.5</ele>
        <time>2024-01-07T13:30:56Z</time>
      </trkpt>
      <trkpt lat="46.82723" lon="6.43214">
        <ele>1142.9</ele>
        <time>2024-01-07T13:31:03Z</time>
      </trkpt>
      <trkpt lat="46.82705" lon="6.43215">
        <ele>1142.8</ele>
        <time>2024-01-07T13:31:09Z</time>
      </trkpt>
      <trkpt lat="46.82685" lon="6.43219">
        <ele>1142.7</ele>
        <time>2024-01-07T13:31:15Z</time>
      </trkpt>
      <trkpt lat="46.82666" lon="6.43218">
        <ele>1142.3</ele>
        <time>2024-01-07T13:31:20Z</time>
      </trkpt>
      <trkpt lat="46.82648" lon="6.43219">
        <ele>1141.4</ele>
        <time>2024-01-07T13:31:25Z</time>
      </trkpt>
      <trkpt lat="46.82629" lon="6.43221">
        <ele>1140.3</ele>
        <time>2024-01-07T13:31:30Z</time>
      </trkpt>
      <trkpt lat="46.82608" lon="6.4322">
        <ele>1138.8</ele>
        <time>2024-01-07T13:31:36Z</time>
      </trkpt>
      <trkpt lat="46.82589" lon="6.43218">
        <ele>1137.5</ele>
        <time>2024-01-07T13:31:41Z</time>
      </trkpt>
      <trkpt lat="46.8257" lon="6.43218">
        <ele>1136.2</ele>
        <time>2024-01-07T13:31:46Z</time>
      </trkpt>
      <trkpt lat="46.82552" lon="6.43218">
        <ele>1135</ele>
        <time>2024-01-07T13:31:51Z</time>
      </trkpt>
      <trkpt lat="46.82532" lon="6.43218">
        <ele>1133.4</ele>
        <time>2024-01-07T13:31:57Z</time>
      </trkpt>
      <trkpt lat="46.82512" lon="6.43221">
        <ele>1132.2</ele>
        <time>2024-01-07T13:32:03Z</time>
      </trkpt>
      <trkpt lat="46.82494" lon="6.43235">
        <ele>1131.7</ele>
        <time>2024-01-07T13:32:09Z</time>
      </trkpt>
      <trkpt lat="46.82481" lon="6.43256">
        <ele>1131.5</ele>
        <time>2024-01-07T13:32:14Z</time>
      </trkpt>
      <trkpt lat="46.82471" lon="6.43279">
        <ele>1132.2</ele>
        <time>2024-01-07T13:32:19Z</time>
      </trkpt>
      <trkpt lat="46.82461" lon="6.43301">
        <ele>1133.3</ele>
        <time>2024-01-07T13:32:25Z</time>
      </trkpt>
      <trkpt lat="46.82458" lon="6.43302">
        <ele>1133.5</ele>
        <time>2024-01-07T13:32:26Z</time>
      </trkpt>
      <trkpt lat="46.82456" lon="6.43301">
        <ele>1133.6</ele>
        <time>2024-01-07T13:32:28Z</time>
      </trkpt>
      <trkpt lat="46.82443" lon="6.43281">
        <ele>1134.9</ele>
        <time>2024-01-07T13:32:36Z</time>
      </trkpt>
      <trkpt lat="46.82426" lon="6.43266">
        <ele>1135.8</ele>
        <time>2024-01-07T13:32:43Z</time>
      </trkpt>
      <trkpt lat="46.82407" lon="6.43258">
        <ele>1137</ele>
        <time>2024-01-07T13:32:50Z</time>
      </trkpt>
      <trkpt lat="46.82387" lon="6.43258">
        <ele>1138.1</ele>
        <time>2024-01-07T13:32:58Z</time>
      </trkpt>
      <trkpt lat="46.82369" lon="6.43269">
        <ele>1138.8</ele>
        <time>2024-01-07T13:33:05Z</time>
      </trkpt>
      <trkpt lat="46.82358" lon="6.43292">
        <ele>1139.9</ele>
        <time>2024-01-07T13:33:13Z</time>
      </trkpt>
      <trkpt lat="46.82346" lon="6.43311">
        <ele>1141.2</ele>
        <time>2024-01-07T13:33:20Z</time>
      </trkpt>
      <trkpt lat="46.8233" lon="6.43331">
        <ele>1141.6</ele>
        <time>2024-01-07T13:33:26Z</time>
      </trkpt>
      <trkpt lat="46.82314" lon="6.43344">
        <ele>1142</ele>
        <time>2024-01-07T13:33:35Z</time>
      </trkpt>
      <trkpt lat="46.82296" lon="6.4334">
        <ele>1142.1</ele>
        <time>2024-01-07T13:33:43Z</time>
      </trkpt>
      <trkpt lat="46.82277" lon="6.43338">
        <ele>1143</ele>
        <time>2024-01-07T13:33:50Z</time>
      </trkpt>
      <trkpt lat="46.82258" lon="6.43345">
        <ele>1143.5</ele>
        <time>2024-01-07T13:33:57Z</time>
      </trkpt>
      <trkpt lat="46.8224" lon="6.43352">
        <ele>1143.5</ele>
        <time>2024-01-07T13:34:03Z</time>
      </trkpt>
      <trkpt lat="46.82221" lon="6.4336">
        <ele>1143</ele>
        <time>2024-01-07T13:34:09Z</time>
      </trkpt>
      <trkpt lat="46.82203" lon="6.43367">
        <ele>1141.1</ele>
        <time>2024-01-07T13:34:14Z</time>
      </trkpt>
      <trkpt lat="46.82187" lon="6.4335">
        <ele>1139.3</ele>
        <time>2024-01-07T13:34:20Z</time>
      </trkpt>
      <trkpt lat="46.8217" lon="6.43337">
        <ele>1139.8</ele>
        <time>2024-01-07T13:34:27Z</time>
      </trkpt>
      <trkpt lat="46.82154" lon="6.43321">
        <ele>1139.3</ele>
        <time>2024-01-07T13:34:34Z</time>
      </trkpt>
      <trkpt lat="46.82153" lon="6.43312">
        <ele>1138.9</ele>
        <time>2024-01-07T13:34:35Z</time>
      </trkpt>
      <trkpt lat="46.82159" lon="6.43285">
        <ele>1137.6</ele>
        <time>2024-01-07T13:34:42Z</time>
      </trkpt>
      <trkpt lat="46.82165" lon="6.43259">
        <ele>1137.5</ele>
        <time>2024-01-07T13:34:49Z</time>
      </trkpt>
      <trkpt lat="46.82167" lon="6.4323">
        <ele>1137.5</ele>
        <time>2024-01-07T13:34:57Z</time>
      </trkpt>
      <trkpt lat="46.82156" lon="6.43208">
        <ele>1137</ele>
        <time>2024-01-07T13:35:05Z</time>
      </trkpt>
      <trkpt lat="46.8214" lon="6.43192">
        <ele>1136.5</ele>
        <time>2024-01-07T13:35:10Z</time>
      </trkpt>
      <trkpt lat="46.82121" lon="6.43179">
        <ele>1135.9</ele>
        <time>2024-01-07T13:35:17Z</time>
      </trkpt>
      <trkpt lat="46.82103" lon="6.43162">
        <ele>1135.1</ele>
        <time>2024-01-07T13:35:24Z</time>
      </trkpt>
      <trkpt lat="46.82089" lon="6.43141">
        <ele>1134.3</ele>
        <time>2024-01-07T13:35:30Z</time>
      </trkpt>
      <trkpt lat="46.82073" lon="6.43126">
        <ele>1134.2</ele>
        <time>2024-01-07T13:35:36Z</time>
      </trkpt>
      <trkpt lat="46.82054" lon="6.43121">
        <ele>1134</ele>
        <time>2024-01-07T13:35:43Z</time>
      </trkpt>
      <trkpt lat="46.82035" lon="6.4312">
        <ele>1133.8</ele>
        <time>2024-01-07T13:35:50Z</time>
      </trkpt>
      <trkpt lat="46.82019" lon="6.43127">
        <ele>1118.9</ele>
        <time>2024-01-07T13:35:57Z</time>
      </trkpt>
      <trkpt lat="46.82012" lon="6.43101">
        <ele>1119.3</ele>
        <time>2024-01-07T13:36:05Z</time>
      </trkpt>
      <trkpt lat="46.8202" lon="6.43075">
        <ele>1120.1</ele>
        <time>2024-01-07T13:36:13Z</time>
      </trkpt>
      <trkpt lat="46.8203" lon="6.43051">
        <ele>1120.8</ele>
        <time>2024-01-07T13:36:20Z</time>
      </trkpt>
      <trkpt lat="46.82041" lon="6.43026">
        <ele>1121.3</ele>
        <time>2024-01-07T13:36:27Z</time>
      </trkpt>
      <trkpt lat="46.82052" lon="6.43001">
        <ele>1121.9</ele>
        <time>2024-01-07T13:36:34Z</time>
      </trkpt>
      <trkpt lat="46.82055" lon="6.42973">
        <ele>1122.3</ele>
        <time>2024-01-07T13:36:41Z</time>
      </trkpt>
      <trkpt lat="46.82054" lon="6.42945">
        <ele>1122.4</ele>
        <time>2024-01-07T13:36:48Z</time>
      </trkpt>
      <trkpt lat="46.82051" lon="6.42917">
        <ele>1122.5</ele>
        <time>2024-01-07T13:36:55Z</time>
      </trkpt>
      <trkpt lat="46.82046" lon="6.42889">
        <ele>1122.8</ele>
        <time>2024-01-07T13:37:02Z</time>
      </trkpt>
      <trkpt lat="46.82042" lon="6.42861">
        <ele>1123</ele>
        <time>2024-01-07T13:37:09Z</time>
      </trkpt>
      <trkpt lat="46.82039" lon="6.42833">
        <ele>1123.4</ele>
        <time>2024-01-07T13:37:16Z</time>
      </trkpt>
      <trkpt lat="46.82035" lon="6.42805">
        <ele>1123.8</ele>
        <time>2024-01-07T13:37:23Z</time>
      </trkpt>
      <trkpt lat="46.82033" lon="6.42776">
        <ele>1124.2</ele>
        <time>2024-01-07T13:37:31Z</time>
      </trkpt>
      <trkpt lat="46.8203" lon="6.42747">
        <ele>1124.8</ele>
        <time>2024-01-07T13:37:38Z</time>
      </trkpt>
      <trkpt lat="46.8203" lon="6.4272">
        <ele>1125.3</ele>
        <time>2024-01-07T13:37:45Z</time>
      </trkpt>
      <trkpt lat="46.82032" lon="6.42691">
        <ele>1125.8</ele>
        <time>2024-01-07T13:37:53Z</time>
      </trkpt>
      <trkpt lat="46.82032" lon="6.42664">
        <ele>1126.2</ele>
        <time>2024-01-07T13:38:00Z</time>
      </trkpt>
      <trkpt lat="46.82029" lon="6.42635">
        <ele>1126.7</ele>
        <time>2024-01-07T13:38:07Z</time>
      </trkpt>
      <trkpt lat="46.82031" lon="6.42607">
        <ele>1127.2</ele>
        <time>2024-01-07T13:38:15Z</time>
      </trkpt>
      <trkpt lat="46.8203" lon="6.42579">
        <ele>1127.8</ele>
        <time>2024-01-07T13:38:23Z</time>
      </trkpt>
      <trkpt lat="46.82027" lon="6.42552">
        <ele>1128.4</ele>
        <time>2024-01-07T13:38:31Z</time>
      </trkpt>
      <trkpt lat="46.82022" lon="6.42527">
        <ele>1129.1</ele>
        <time>2024-01-07T13:38:38Z</time>
      </trkpt>
      <trkpt lat="46.82011" lon="6.42501">
        <ele>1129.7</ele>
        <time>2024-01-07T13:38:44Z</time>
      </trkpt>
      <trkpt lat="46.82004" lon="6.42477">
        <ele>1130.3</ele>
        <time>2024-01-07T13:38:50Z</time>
      </trkpt>
      <trkpt lat="46.81995" lon="6.42451">
        <ele>1131.2</ele>
        <time>2024-01-07T13:38:57Z</time>
      </trkpt>
      <trkpt lat="46.81989" lon="6.42425">
        <ele>1131.9</ele>
        <time>2024-01-07T13:39:04Z</time>
      </trkpt>
      <trkpt lat="46.81982" lon="6.42397">
        <ele>1132.7</ele>
        <time>2024-01-07T13:39:11Z</time>
      </trkpt>
      <trkpt lat="46.81973" lon="6.42372">
        <ele>1133.5</ele>
        <time>2024-01-07T13:39:18Z</time>
      </trkpt>
      <trkpt lat="46.81964" lon="6.42347">
        <ele>1134.4</ele>
        <time>2024-01-07T13:39:26Z</time>
      </trkpt>
      <trkpt lat="46.81955" lon="6.42322">
        <ele>1135.2</ele>
        <time>2024-01-07T13:39:32Z</time>
      </trkpt>
      <trkpt lat="46.8195" lon="6.42293">
        <ele>1135.9</ele>
        <time>2024-01-07T13:39:39Z</time>
      </trkpt>
      <trkpt lat="46.81948" lon="6.42267">
        <ele>1136.7</ele>
        <time>2024-01-07T13:39:45Z</time>
      </trkpt>
      <trkpt lat="46.81942" lon="6.42242">
        <ele>1137.6</ele>
        <time>2024-01-07T13:39:51Z</time>
      </trkpt>
      <trkpt lat="46.81933" lon="6.42215">
        <ele>1138.9</ele>
        <time>2024-01-07T13:39:58Z</time>
      </trkpt>
      <trkpt lat="46.81925" lon="6.42191">
        <ele>1139.9</ele>
        <time>2024-01-07T13:40:06Z</time>
      </trkpt>
      <trkpt lat="46.8192" lon="6.42166">
        <ele>1140.8</ele>
        <time>2024-01-07T13:40:13Z</time>
      </trkpt>
      <trkpt lat="46.81915" lon="6.42141">
        <ele>1141.7</ele>
        <time>2024-01-07T13:40:20Z</time>
      </trkpt>
      <trkpt lat="46.81912" lon="6.42111">
        <ele>1142.6</ele>
        <time>2024-01-07T13:40:28Z</time>
      </trkpt>
      <trkpt lat="46.8191" lon="6.42083">
        <ele>1143.3</ele>
        <time>2024-01-07T13:40:34Z</time>
      </trkpt>
      <trkpt lat="46.81913" lon="6.42056">
        <ele>1144.1</ele>
        <time>2024-01-07T13:40:40Z</time>
      </trkpt>
      <trkpt lat="46.81916" lon="6.42028">
        <ele>1145</ele>
        <time>2024-01-07T13:40:46Z</time>
      </trkpt>
      <trkpt lat="46.81917" lon="6.41999">
        <ele>1146</ele>
        <time>2024-01-07T13:40:53Z</time>
      </trkpt>
      <trkpt lat="46.81914" lon="6.41972">
        <ele>1146.9</ele>
        <time>2024-01-07T13:40:59Z</time>
      </trkpt>
      <trkpt lat="46.81905" lon="6.41944">
        <ele>1147.9</ele>
        <time>2024-01-07T13:41:05Z</time>
      </trkpt>
      <trkpt lat="46.81897" lon="6.41921">
        <ele>1148.3</ele>
        <time>2024-01-07T13:41:10Z</time>
      </trkpt>
      <trkpt lat="46.8189" lon="6.41892">
        <ele>1148.2</ele>
        <time>2024-01-07T13:41:17Z</time>
      </trkpt>
      <trkpt lat="46.81878" lon="6.41873">
        <ele>1148.1</ele>
        <time>2024-01-07T13:41:25Z</time>
      </trkpt>
      <trkpt lat="46.81865" lon="6.41853">
        <ele>1148.2</ele>
        <time>2024-01-07T13:41:33Z</time>
      </trkpt>
      <trkpt lat="46.81858" lon="6.41829">
        <ele>1148.5</ele>
        <time>2024-01-07T13:41:40Z</time>
      </trkpt>
      <trkpt lat="46.8186" lon="6.41803">
        <ele>1150</ele>
        <time>2024-01-07T13:41:47Z</time>
      </trkpt>
      <trkpt lat="46.81871" lon="6.41782">
        <ele>1151.2</ele>
        <time>2024-01-07T13:41:55Z</time>
      </trkpt>
      <trkpt lat="46.81883" lon="6.41763">
        <ele>1152.5</ele>
        <time>2024-01-07T13:42:03Z</time>
      </trkpt>
      <trkpt lat="46.81888" lon="6.41738">
        <ele>1153.7</ele>
        <time>2024-01-07T13:42:11Z</time>
      </trkpt>
      <trkpt lat="46.81902" lon="6.4172">
        <ele>1155</ele>
        <time>2024-01-07T13:42:19Z</time>
      </trkpt>
      <trkpt lat="46.8191" lon="6.41696">
        <ele>1156.2</ele>
        <time>2024-01-07T13:42:26Z</time>
      </trkpt>
      <trkpt lat="46.81914" lon="6.41667">
        <ele>1157.7</ele>
        <time>2024-01-07T13:42:34Z</time>
      </trkpt>
      <trkpt lat="46.81918" lon="6.41641">
        <ele>1159.3</ele>
        <time>2024-01-07T13:42:42Z</time>
      </trkpt>
      <trkpt lat="46.81921" lon="6.41613">
        <ele>1160.3</ele>
        <time>2024-01-07T13:42:51Z</time>
      </trkpt>
      <trkpt lat="46.8191" lon="6.41593">
        <ele>1160.5</ele>
        <time>2024-01-07T13:42:59Z</time>
      </trkpt>
      <trkpt lat="46.81894" lon="6.41573">
        <ele>1160.3</ele>
        <time>2024-01-07T13:43:07Z</time>
      </trkpt>
      <trkpt lat="46.81883" lon="6.41553">
        <ele>1159.9</ele>
        <time>2024-01-07T13:43:14Z</time>
      </trkpt>
      <trkpt lat="46.81873" lon="6.41531">
        <ele>1160.2</ele>
        <time>2024-01-07T13:43:21Z</time>
      </trkpt>
      <trkpt lat="46.81867" lon="6.41506">
        <ele>1161.2</ele>
        <time>2024-01-07T13:43:28Z</time>
      </trkpt>
      <trkpt lat="46.81861" lon="6.4148">
        <ele>1162.5</ele>
        <time>2024-01-07T13:43:37Z</time>
      </trkpt>
      <trkpt lat="46.81852" lon="6.41456">
        <ele>1162.8</ele>
        <time>2024-01-07T13:43:46Z</time>
      </trkpt>
      <trkpt lat="46.81845" lon="6.41429">
        <ele>1164.2</ele>
        <time>2024-01-07T13:43:56Z</time>
      </trkpt>
      <trkpt lat="46.81838" lon="6.41404">
        <ele>1164.8</ele>
        <time>2024-01-07T13:44:04Z</time>
      </trkpt>
      <trkpt lat="46.81836" lon="6.41376">
        <ele>1167.2</ele>
        <time>2024-01-07T13:44:12Z</time>
      </trkpt>
      <trkpt lat="46.81828" lon="6.41352">
        <ele>1168.5</ele>
        <time>2024-01-07T13:44:20Z</time>
      </trkpt>
      <trkpt lat="46.81821" lon="6.41325">
        <ele>1170.2</ele>
        <time>2024-01-07T13:44:29Z</time>
      </trkpt>
      <trkpt lat="46.81816" lon="6.41298">
        <ele>1171.8</ele>
        <time>2024-01-07T13:44:37Z</time>
      </trkpt>
      <trkpt lat="46.81809" lon="6.41271">
        <ele>1173.2</ele>
        <time>2024-01-07T13:44:46Z</time>
      </trkpt>
      <trkpt lat="46.81802" lon="6.41244">
        <ele>1174.2</ele>
        <time>2024-01-07T13:44:55Z</time>
      </trkpt>
      <trkpt lat="46.81794" lon="6.4122">
        <ele>1175</ele>
        <time>2024-01-07T13:45:04Z</time>
      </trkpt>
      <trkpt lat="46.81789" lon="6.41192">
        <ele>1175.1</ele>
        <time>2024-01-07T13:45:12Z</time>
      </trkpt>
      <trkpt lat="46.81786" lon="6.41164">
        <ele>1176</ele>
        <time>2024-01-07T13:45:21Z</time>
      </trkpt>
      <trkpt lat="46.81781" lon="6.41138">
        <ele>1176.7</ele>
        <time>2024-01-07T13:45:30Z</time>
      </trkpt>
      <trkpt lat="46.81774" lon="6.4111">
        <ele>1178</ele>
        <time>2024-01-07T13:45:40Z</time>
      </trkpt>
      <trkpt lat="46.81765" lon="6.41087">
        <ele>1179</ele>
        <time>2024-01-07T13:45:49Z</time>
      </trkpt>
      <trkpt lat="46.81749" lon="6.41071">
        <ele>1178.6</ele>
        <time>2024-01-07T13:45:58Z</time>
      </trkpt>
      <trkpt lat="46.81731" lon="6.4107">
        <ele>1176.6</ele>
        <time>2024-01-07T13:46:06Z</time>
      </trkpt>
      <trkpt lat="46.81712" lon="6.4108">
        <ele>1174.2</ele>
        <time>2024-01-07T13:46:12Z</time>
      </trkpt>
      <trkpt lat="46.817" lon="6.41082">
        <ele>1173.4</ele>
        <time>2024-01-07T13:46:17Z</time>
      </trkpt>
      <trkpt lat="46.81698" lon="6.41077">
        <ele>1173.7</ele>
        <time>2024-01-07T13:46:20Z</time>
      </trkpt>
      <trkpt lat="46.81696" lon="6.41049">
        <ele>1175.3</ele>
        <time>2024-01-07T13:46:29Z</time>
      </trkpt>
      <trkpt lat="46.81699" lon="6.41023">
        <ele>1176.7</ele>
        <time>2024-01-07T13:46:38Z</time>
      </trkpt>
      <trkpt lat="46.81696" lon="6.40995">
        <ele>1178</ele>
        <time>2024-01-07T13:46:47Z</time>
      </trkpt>
      <trkpt lat="46.81693" lon="6.40968">
        <ele>1179.5</ele>
        <time>2024-01-07T13:46:57Z</time>
      </trkpt>
      <trkpt lat="46.81691" lon="6.40943">
        <ele>1181.1</ele>
        <time>2024-01-07T13:47:06Z</time>
      </trkpt>
      <trkpt lat="46.81688" lon="6.40917">
        <ele>1182.6</ele>
        <time>2024-01-07T13:47:14Z</time>
      </trkpt>
      <trkpt lat="46.81682" lon="6.40889">
        <ele>1184.6</ele>
        <time>2024-01-07T13:47:24Z</time>
      </trkpt>
      <trkpt lat="46.8168" lon="6.40861">
        <ele>1186.4</ele>
        <time>2024-01-07T13:47:33Z</time>
      </trkpt>
      <trkpt lat="46.81678" lon="6.40833">
        <ele>1188</ele>
        <time>2024-01-07T13:47:42Z</time>
      </trkpt>
      <trkpt lat="46.81674" lon="6.40806">
        <ele>1189.4</ele>
        <time>2024-01-07T13:47:51Z</time>
      </trkpt>
      <trkpt lat="46.81671" lon="6.4078">
        <ele>1190.7</ele>
        <time>2024-01-07T13:47:59Z</time>
      </trkpt>
      <trkpt lat="46.81667" lon="6.40753">
        <ele>1191.9</ele>
        <time>2024-01-07T13:48:07Z</time>
      </trkpt>
      <trkpt lat="46.81664" lon="6.40726">
        <ele>1193.4</ele>
        <time>2024-01-07T13:48:16Z</time>
      </trkpt>
      <trkpt lat="46.81659" lon="6.40698">
        <ele>1195.2</ele>
        <time>2024-01-07T13:48:25Z</time>
      </trkpt>
      <trkpt lat="46.8166" lon="6.4067">
        <ele>1196.1</ele>
        <time>2024-01-07T13:48:34Z</time>
      </trkpt>
      <trkpt lat="46.8166" lon="6.40643">
        <ele>1196.5</ele>
        <time>2024-01-07T13:48:42Z</time>
      </trkpt>
      <trkpt lat="46.8166" lon="6.40616">
        <ele>1197.2</ele>
        <time>2024-01-07T13:48:50Z</time>
      </trkpt>
      <trkpt lat="46.81659" lon="6.40589">
        <ele>1198.5</ele>
        <time>2024-01-07T13:48:58Z</time>
      </trkpt>
      <trkpt lat="46.81659" lon="6.40561">
        <ele>1199.9</ele>
        <time>2024-01-07T13:49:07Z</time>
      </trkpt>
      <trkpt lat="46.8166" lon="6.40534">
        <ele>1201.1</ele>
        <time>2024-01-07T13:49:16Z</time>
      </trkpt>
      <trkpt lat="46.81665" lon="6.4051">
        <ele>1203</ele>
        <time>2024-01-07T13:49:25Z</time>
      </trkpt>
      <trkpt lat="46.81676" lon="6.40486">
        <ele>1205.1</ele>
        <time>2024-01-07T13:49:34Z</time>
      </trkpt>
      <trkpt lat="46.8168" lon="6.40457">
        <ele>1206.4</ele>
        <time>2024-01-07T13:49:42Z</time>
      </trkpt>
      <trkpt lat="46.81681" lon="6.40429">
        <ele>1207.4</ele>
        <time>2024-01-07T13:49:50Z</time>
      </trkpt>
      <trkpt lat="46.81681" lon="6.40403">
        <ele>1208.2</ele>
        <time>2024-01-07T13:49:57Z</time>
      </trkpt>
      <trkpt lat="46.8168" lon="6.40372">
        <ele>1209.1</ele>
        <time>2024-01-07T13:50:05Z</time>
      </trkpt>
      <trkpt lat="46.81681" lon="6.40343">
        <ele>1210</ele>
        <time>2024-01-07T13:50:12Z</time>
      </trkpt>
      <trkpt lat="46.81682" lon="6.40315">
        <ele>1210.7</ele>
        <time>2024-01-07T13:50:19Z</time>
      </trkpt>
      <trkpt lat="46.81682" lon="6.40285">
        <ele>1211.7</ele>
        <time>2024-01-07T13:50:26Z</time>
      </trkpt>
      <trkpt lat="46.81687" lon="6.40256">
        <ele>1212.7</ele>
        <time>2024-01-07T13:50:33Z</time>
      </trkpt>
      <trkpt lat="46.81694" lon="6.40231">
        <ele>1213.2</ele>
        <time>2024-01-07T13:50:39Z</time>
      </trkpt>
      <trkpt lat="46.81699" lon="6.40204">
        <ele>1213.7</ele>
        <time>2024-01-07T13:50:45Z</time>
      </trkpt>
      <trkpt lat="46.81703" lon="6.40174">
        <ele>1214.3</ele>
        <time>2024-01-07T13:50:51Z</time>
      </trkpt>
      <trkpt lat="46.81708" lon="6.40147">
        <ele>1214.7</ele>
        <time>2024-01-07T13:50:57Z</time>
      </trkpt>
      <trkpt lat="46.81715" lon="6.40118">
        <ele>1214.8</ele>
        <time>2024-01-07T13:51:03Z</time>
      </trkpt>
      <trkpt lat="46.81725" lon="6.40095">
        <ele>1214.5</ele>
        <time>2024-01-07T13:51:08Z</time>
      </trkpt>
      <trkpt lat="46.8174" lon="6.40074">
        <ele>1213.8</ele>
        <time>2024-01-07T13:51:14Z</time>
      </trkpt>
      <trkpt lat="46.81756" lon="6.40053">
        <ele>1212.9</ele>
        <time>2024-01-07T13:51:20Z</time>
      </trkpt>
      <trkpt lat="46.81772" lon="6.40038">
        <ele>1212.1</ele>
        <time>2024-01-07T13:51:25Z</time>
      </trkpt>
      <trkpt lat="46.8179" lon="6.4002">
        <ele>1210.7</ele>
        <time>2024-01-07T13:51:31Z</time>
      </trkpt>
      <trkpt lat="46.81803" lon="6.40001">
        <ele>1209.5</ele>
        <time>2024-01-07T13:51:36Z</time>
      </trkpt>
      <trkpt lat="46.81812" lon="6.39974">
        <ele>1207.2</ele>
        <time>2024-01-07T13:51:42Z</time>
      </trkpt>
      <trkpt lat="46.81815" lon="6.39947">
        <ele>1205</ele>
        <time>2024-01-07T13:51:47Z</time>
      </trkpt>
      <trkpt lat="46.81818" lon="6.39919">
        <ele>1202.8</ele>
        <time>2024-01-07T13:51:52Z</time>
      </trkpt>
      <trkpt lat="46.81825" lon="6.39891">
        <ele>1201.5</ele>
        <time>2024-01-07T13:51:57Z</time>
      </trkpt>
      <trkpt lat="46.81833" lon="6.39864">
        <ele>1202.8</ele>
        <time>2024-01-07T13:52:04Z</time>
      </trkpt>
      <trkpt lat="46.81832" lon="6.39836">
        <ele>1203.8</ele>
        <time>2024-01-07T13:52:10Z</time>
      </trkpt>
      <trkpt lat="46.81839" lon="6.39812">
        <ele>1204.6</ele>
        <time>2024-01-07T13:52:16Z</time>
      </trkpt>
      <trkpt lat="46.81854" lon="6.39792">
        <ele>1205.1</ele>
        <time>2024-01-07T13:52:23Z</time>
      </trkpt>
      <trkpt lat="46.81866" lon="6.39768">
        <ele>1205.3</ele>
        <time>2024-01-07T13:52:30Z</time>
      </trkpt>
      <trkpt lat="46.81872" lon="6.39739">
        <ele>1204.2</ele>
        <time>2024-01-07T13:52:37Z</time>
      </trkpt>
      <trkpt lat="46.81878" lon="6.39712">
        <ele>1202.9</ele>
        <time>2024-01-07T13:52:43Z</time>
      </trkpt>
      <trkpt lat="46.81885" lon="6.39685">
        <ele>1201.6</ele>
        <time>2024-01-07T13:52:49Z</time>
      </trkpt>
      <trkpt lat="46.81892" lon="6.39658">
        <ele>1200.3</ele>
        <time>2024-01-07T13:52:55Z</time>
      </trkpt>
      <trkpt lat="46.81899" lon="6.39632">
        <ele>1198.7</ele>
        <time>2024-01-07T13:53:01Z</time>
      </trkpt>
      <trkpt lat="46.81908" lon="6.39607">
        <ele>1196.8</ele>
        <time>2024-01-07T13:53:07Z</time>
      </trkpt>
      <trkpt lat="46.81921" lon="6.39583">
        <ele>1194.8</ele>
        <time>2024-01-07T13:53:13Z</time>
      </trkpt>
      <trkpt lat="46.81936" lon="6.3956">
        <ele>1192.6</ele>
        <time>2024-01-07T13:53:19Z</time>
      </trkpt>
      <trkpt lat="46.81949" lon="6.39537">
        <ele>1190.5</ele>
        <time>2024-01-07T13:53:25Z</time>
      </trkpt>
      <trkpt lat="46.81962" lon="6.39518">
        <ele>1188.6</ele>
        <time>2024-01-07T13:53:30Z</time>
      </trkpt>
      <trkpt lat="46.81974" lon="6.39493">
        <ele>1186.6</ele>
        <time>2024-01-07T13:53:35Z</time>
      </trkpt>
      <trkpt lat="46.81989" lon="6.39469">
        <ele>1184.6</ele>
        <time>2024-01-07T13:53:40Z</time>
      </trkpt>
      <trkpt lat="46.82005" lon="6.39456">
        <ele>1183.3</ele>
        <time>2024-01-07T13:53:44Z</time>
      </trkpt>
      <trkpt lat="46.82023" lon="6.39449">
        <ele>1182.2</ele>
        <time>2024-01-07T13:53:48Z</time>
      </trkpt>
      <trkpt lat="46.82044" lon="6.39443">
        <ele>1180.8</ele>
        <time>2024-01-07T13:53:53Z</time>
      </trkpt>
      <trkpt lat="46.8206" lon="6.3944">
        <ele>1179.5</ele>
        <time>2024-01-07T13:53:57Z</time>
      </trkpt>
      <trkpt lat="46.82081" lon="6.3944">
        <ele>1177.6</ele>
        <time>2024-01-07T13:54:02Z</time>
      </trkpt>
      <trkpt lat="46.82085" lon="6.3944">
        <ele>1177.2</ele>
        <time>2024-01-07T13:54:03Z</time>
      </trkpt>
      <trkpt lat="46.82093" lon="6.39442">
        <ele>1176.5</ele>
        <time>2024-01-07T13:54:05Z</time>
      </trkpt>
      <trkpt lat="46.82111" lon="6.39442">
        <ele>1174.8</ele>
        <time>2024-01-07T13:54:10Z</time>
      </trkpt>
      <trkpt lat="46.8213" lon="6.39443">
        <ele>1173.2</ele>
        <time>2024-01-07T13:54:15Z</time>
      </trkpt>
      <trkpt lat="46.8215" lon="6.39446">
        <ele>1171.7</ele>
        <time>2024-01-07T13:54:20Z</time>
      </trkpt>
      <trkpt lat="46.82167" lon="6.39454">
        <ele>1170.6</ele>
        <time>2024-01-07T13:54:25Z</time>
      </trkpt>
      <trkpt lat="46.8218" lon="6.39475">
        <ele>1169.7</ele>
        <time>2024-01-07T13:54:31Z</time>
      </trkpt>
      <trkpt lat="46.82198" lon="6.39492">
        <ele>1168.6</ele>
        <time>2024-01-07T13:54:37Z</time>
      </trkpt>
      <trkpt lat="46.82213" lon="6.39513">
        <ele>1167.5</ele>
        <time>2024-01-07T13:54:43Z</time>
      </trkpt>
      <trkpt lat="46.82227" lon="6.3953">
        <ele>1166.7</ele>
        <time>2024-01-07T13:54:49Z</time>
      </trkpt>
      <trkpt lat="46.82244" lon="6.39541">
        <ele>1165.8</ele>
        <time>2024-01-07T13:54:54Z</time>
      </trkpt>
      <trkpt lat="46.82262" lon="6.3955">
        <ele>1165</ele>
        <time>2024-01-07T13:54:59Z</time>
      </trkpt>
      <trkpt lat="46.82282" lon="6.39559">
        <ele>1164</ele>
        <time>2024-01-07T13:55:05Z</time>
      </trkpt>
      <trkpt lat="46.82303" lon="6.39566">
        <ele>1163.1</ele>
        <time>2024-01-07T13:55:12Z</time>
      </trkpt>
      <trkpt lat="46.82318" lon="6.39581">
        <ele>1162.1</ele>
        <time>2024-01-07T13:55:18Z</time>
      </trkpt>
      <trkpt lat="46.82334" lon="6.39598">
        <ele>1161</ele>
        <time>2024-01-07T13:55:24Z</time>
      </trkpt>
      <trkpt lat="46.82352" lon="6.39613">
        <ele>1159.9</ele>
        <time>2024-01-07T13:55:30Z</time>
      </trkpt>
      <trkpt lat="46.82369" lon="6.39627">
        <ele>1159</ele>
        <time>2024-01-07T13:55:35Z</time>
      </trkpt>
      <trkpt lat="46.82385" lon="6.39641">
        <ele>1158.2</ele>
        <time>2024-01-07T13:55:40Z</time>
      </trkpt>
      <trkpt lat="46.824" lon="6.39656">
        <ele>1157.6</ele>
        <time>2024-01-07T13:55:45Z</time>
      </trkpt>
      <trkpt lat="46.82415" lon="6.39672">
        <ele>1157.3</ele>
        <time>2024-01-07T13:55:50Z</time>
      </trkpt>
      <trkpt lat="46.8243" lon="6.3969">
        <ele>1157.3</ele>
        <time>2024-01-07T13:55:55Z</time>
      </trkpt>
      <trkpt lat="46.82449" lon="6.39703">
        <ele>1157.5</ele>
        <time>2024-01-07T13:56:00Z</time>
      </trkpt>
      <trkpt lat="46.82464" lon="6.39722">
        <ele>1158.1</ele>
        <time>2024-01-07T13:56:06Z</time>
      </trkpt>
      <trkpt lat="46.82477" lon="6.39743">
        <ele>1158.5</ele>
        <time>2024-01-07T13:56:13Z</time>
      </trkpt>
      <trkpt lat="46.82492" lon="6.39762">
        <ele>1158.5</ele>
        <time>2024-01-07T13:56:19Z</time>
      </trkpt>
      <trkpt lat="46.82505" lon="6.39782">
        <ele>1158.4</ele>
        <time>2024-01-07T13:56:24Z</time>
      </trkpt>
      <trkpt lat="46.82515" lon="6.39804">
        <ele>1158</ele>
        <time>2024-01-07T13:56:29Z</time>
      </trkpt>
      <trkpt lat="46.8252" lon="6.39831">
        <ele>1157.6</ele>
        <time>2024-01-07T13:56:35Z</time>
      </trkpt>
      <trkpt lat="46.82527" lon="6.39861">
        <ele>1156.5</ele>
        <time>2024-01-07T13:56:41Z</time>
      </trkpt>
      <trkpt lat="46.82532" lon="6.39887">
        <ele>1155.2</ele>
        <time>2024-01-07T13:56:46Z</time>
      </trkpt>
      <trkpt lat="46.82539" lon="6.39913">
        <ele>1154.1</ele>
        <time>2024-01-07T13:56:51Z</time>
      </trkpt>
      <trkpt lat="46.82546" lon="6.39939">
        <ele>1153.5</ele>
        <time>2024-01-07T13:56:56Z</time>
      </trkpt>
      <trkpt lat="46.82554" lon="6.39966">
        <ele>1153.5</ele>
        <time>2024-01-07T13:57:02Z</time>
      </trkpt>
      <trkpt lat="46.82563" lon="6.3999">
        <ele>1153.8</ele>
        <time>2024-01-07T13:57:08Z</time>
      </trkpt>
      <trkpt lat="46.82574" lon="6.40013">
        <ele>1154</ele>
        <time>2024-01-07T13:57:14Z</time>
      </trkpt>
      <trkpt lat="46.82584" lon="6.40036">
        <ele>1154.1</ele>
        <time>2024-01-07T13:57:20Z</time>
      </trkpt>
      <trkpt lat="46.82596" lon="6.40059">
        <ele>1153.7</ele>
        <time>2024-01-07T13:57:26Z</time>
      </trkpt>
      <trkpt lat="46.82605" lon="6.40082">
        <ele>1153</ele>
        <time>2024-01-07T13:57:32Z</time>
      </trkpt>
      <trkpt lat="46.82616" lon="6.40106">
        <ele>1151.9</ele>
        <time>2024-01-07T13:57:38Z</time>
      </trkpt>
      <trkpt lat="46.82627" lon="6.40132">
        <ele>1150.3</ele>
        <time>2024-01-07T13:57:44Z</time>
      </trkpt>
      <trkpt lat="46.82638" lon="6.40154">
        <ele>1148.5</ele>
        <time>2024-01-07T13:57:49Z</time>
      </trkpt>
      <trkpt lat="46.82649" lon="6.40178">
        <ele>1146.5</ele>
        <time>2024-01-07T13:57:54Z</time>
      </trkpt>
      <trkpt lat="46.82661" lon="6.40198">
        <ele>1144.6</ele>
        <time>2024-01-07T13:58:01Z</time>
      </trkpt>
      <trkpt lat="46.82673" lon="6.40221">
        <ele>1142.5</ele>
        <time>2024-01-07T13:58:07Z</time>
      </trkpt>
      <trkpt lat="46.82684" lon="6.40241">
        <ele>1140.7</ele>
        <time>2024-01-07T13:58:12Z</time>
      </trkpt>
      <trkpt lat="46.827" lon="6.40259">
        <ele>1138.5</ele>
        <time>2024-01-07T13:58:18Z</time>
      </trkpt>
      <trkpt lat="46.82718" lon="6.4027">
        <ele>1136.7</ele>
        <time>2024-01-07T13:58:23Z</time>
      </trkpt>
      <trkpt lat="46.82734" lon="6.40284">
        <ele>1135</ele>
        <time>2024-01-07T13:58:28Z</time>
      </trkpt>
      <trkpt lat="46.82751" lon="6.40299">
        <ele>1133.1</ele>
        <time>2024-01-07T13:58:33Z</time>
      </trkpt>
      <trkpt lat="46.82767" lon="6.40315">
        <ele>1131</ele>
        <time>2024-01-07T13:58:38Z</time>
      </trkpt>
      <trkpt lat="46.82783" lon="6.40336">
        <ele>1129</ele>
        <time>2024-01-07T13:58:44Z</time>
      </trkpt>
      <trkpt lat="46.82797" lon="6.4036">
        <ele>1127.1</ele>
        <time>2024-01-07T13:58:49Z</time>
      </trkpt>
      <trkpt lat="46.82808" lon="6.40381">
        <ele>1125.5</ele>
        <time>2024-01-07T13:58:54Z</time>
      </trkpt>
      <trkpt lat="46.8282" lon="6.40404">
        <ele>1123.7</ele>
        <time>2024-01-07T13:58:59Z</time>
      </trkpt>
      <trkpt lat="46.82834" lon="6.4043">
        <ele>1121.6</ele>
        <time>2024-01-07T13:59:04Z</time>
      </trkpt>
      <trkpt lat="46.82847" lon="6.40453">
        <ele>1119.5</ele>
        <time>2024-01-07T13:59:09Z</time>
      </trkpt>
      <trkpt lat="46.82862" lon="6.40475">
        <ele>1117.3</ele>
        <time>2024-01-07T13:59:14Z</time>
      </trkpt>
      <trkpt lat="46.82877" lon="6.40492">
        <ele>1115.6</ele>
        <time>2024-01-07T13:59:18Z</time>
      </trkpt>
      <trkpt lat="46.82891" lon="6.40509">
        <ele>1113.8</ele>
        <time>2024-01-07T13:59:22Z</time>
      </trkpt>
      <trkpt lat="46.82901" lon="6.40535">
        <ele>1112</ele>
        <time>2024-01-07T13:59:28Z</time>
      </trkpt>
      <trkpt lat="46.82913" lon="6.40559">
        <ele>1110</ele>
        <time>2024-01-07T13:59:34Z</time>
      </trkpt>
      <trkpt lat="46.82924" lon="6.40582">
        <ele>1108.2</ele>
        <time>2024-01-07T13:59:40Z</time>
      </trkpt>
      <trkpt lat="46.82938" lon="6.406">
        <ele>1106.4</ele>
        <time>2024-01-07T13:59:46Z</time>
      </trkpt>
      <trkpt lat="46.82953" lon="6.40619">
        <ele>1104.5</ele>
        <time>2024-01-07T13:59:52Z</time>
      </trkpt>
      <trkpt lat="46.82968" lon="6.40635">
        <ele>1102.7</ele>
        <time>2024-01-07T13:59:59Z</time>
      </trkpt>
      <trkpt lat="46.82985" lon="6.40646">
        <ele>1100.8</ele>
        <time>2024-01-07T14:00:04Z</time>
      </trkpt>
      <trkpt lat="46.83003" lon="6.40657">
        <ele>1099.2</ele>
        <time>2024-01-07T14:00:09Z</time>
      </trkpt>
      <trkpt lat="46.83021" lon="6.40669">
        <ele>1098</ele>
        <time>2024-01-07T14:00:14Z</time>
      </trkpt>
      <trkpt lat="46.83038" lon="6.4068">
        <ele>1097.2</ele>
        <time>2024-01-07T14:00:19Z</time>
      </trkpt>
      <trkpt lat="46.83058" lon="6.4069">
        <ele>1096.7</ele>
        <time>2024-01-07T14:00:25Z</time>
      </trkpt>
      <trkpt lat="46.83076" lon="6.40699">
        <ele>1096.1</ele>
        <time>2024-01-07T14:00:31Z</time>
      </trkpt>
      <trkpt lat="46.83094" lon="6.40687">
        <ele>1095.1</ele>
        <time>2024-01-07T14:00:37Z</time>
      </trkpt>
      <trkpt lat="46.83109" lon="6.4067">
        <ele>1094.5</ele>
        <time>2024-01-07T14:00:42Z</time>
      </trkpt>
      <trkpt lat="46.83126" lon="6.4065">
        <ele>1094.1</ele>
        <time>2024-01-07T14:00:48Z</time>
      </trkpt>
      <trkpt lat="46.83139" lon="6.4063">
        <ele>1094</ele>
        <time>2024-01-07T14:00:53Z</time>
      </trkpt>
      <trkpt lat="46.83151" lon="6.4061">
        <ele>1093.9</ele>
        <time>2024-01-07T14:00:58Z</time>
      </trkpt>
      <trkpt lat="46.83162" lon="6.40589">
        <ele>1093.8</ele>
        <time>2024-01-07T14:01:03Z</time>
      </trkpt>
      <trkpt lat="46.83177" lon="6.4057">
        <ele>1093.5</ele>
        <time>2024-01-07T14:01:09Z</time>
      </trkpt>
      <trkpt lat="46.83192" lon="6.40549">
        <ele>1093.6</ele>
        <time>2024-01-07T14:01:15Z</time>
      </trkpt>
      <trkpt lat="46.83207" lon="6.40528">
        <ele>1093.7</ele>
        <time>2024-01-07T14:01:21Z</time>
      </trkpt>
      <trkpt lat="46.83224" lon="6.40511">
        <ele>1093.9</ele>
        <time>2024-01-07T14:01:27Z</time>
      </trkpt>
      <trkpt lat="46.83242" lon="6.40503">
        <ele>1093.8</ele>
        <time>2024-01-07T14:01:33Z</time>
      </trkpt>
      <trkpt lat="46.8326" lon="6.40513">
        <ele>1093</ele>
        <time>2024-01-07T14:01:39Z</time>
      </trkpt>
      <trkpt lat="46.83277" lon="6.40499">
        <ele>1092.5</ele>
        <time>2024-01-07T14:01:46Z</time>
      </trkpt>
      <trkpt lat="46.83287" lon="6.40474">
        <ele>1091.9</ele>
        <time>2024-01-07T14:01:53Z</time>
      </trkpt>
      <trkpt lat="46.83287" lon="6.40447">
        <ele>1091.4</ele>
        <time>2024-01-07T14:02:00Z</time>
      </trkpt>
      <trkpt lat="46.83287" lon="6.40419">
        <ele>1091</ele>
        <time>2024-01-07T14:02:07Z</time>
      </trkpt>
      <trkpt lat="46.83283" lon="6.40392">
        <ele>1090.5</ele>
        <time>2024-01-07T14:02:14Z</time>
      </trkpt>
      <trkpt lat="46.83286" lon="6.40367">
        <ele>1090</ele>
        <time>2024-01-07T14:02:20Z</time>
      </trkpt>
      <trkpt lat="46.83295" lon="6.40343">
        <ele>1089.7</ele>
        <time>2024-01-07T14:02:26Z</time>
      </trkpt>
      <trkpt lat="46.833" lon="6.40318">
        <ele>1089.8</ele>
        <time>2024-01-07T14:02:33Z</time>
      </trkpt>
      <trkpt lat="46.83306" lon="6.4029">
        <ele>1089.9</ele>
        <time>2024-01-07T14:02:40Z</time>
      </trkpt>
      <trkpt lat="46.83312" lon="6.40265">
        <ele>1090</ele>
        <time>2024-01-07T14:02:46Z</time>
      </trkpt>
      <trkpt lat="46.83319" lon="6.40238">
        <ele>1090</ele>
        <time>2024-01-07T14:02:52Z</time>
      </trkpt>
      <trkpt lat="46.83328" lon="6.40211">
        <ele>1090</ele>
        <time>2024-01-07T14:02:58Z</time>
      </trkpt>
      <trkpt lat="46.83337" lon="6.40185">
        <ele>1090.1</ele>
        <time>2024-01-07T14:03:04Z</time>
      </trkpt>
      <trkpt lat="46.83347" lon="6.40158">
        <ele>1090.3</ele>
        <time>2024-01-07T14:03:10Z</time>
      </trkpt>
      <trkpt lat="46.83359" lon="6.40133">
        <ele>1090.6</ele>
        <time>2024-01-07T14:03:16Z</time>
      </trkpt>
      <trkpt lat="46.83371" lon="6.4011">
        <ele>1090.7</ele>
        <time>2024-01-07T14:03:22Z</time>
      </trkpt>
      <trkpt lat="46.83381" lon="6.40087">
        <ele>1090.8</ele>
        <time>2024-01-07T14:03:28Z</time>
      </trkpt>
      <trkpt lat="46.83392" lon="6.40063">
        <ele>1091</ele>
        <time>2024-01-07T14:03:34Z</time>
      </trkpt>
      <trkpt lat="46.83407" lon="6.40053">
        <ele>1089.9</ele>
        <time>2024-01-07T14:03:43Z</time>
      </trkpt>
      <trkpt lat="46.83423" lon="6.40067">
        <ele>1088.1</ele>
        <time>2024-01-07T14:03:51Z</time>
      </trkpt>
      <trkpt lat="46.83427" lon="6.40069">
        <ele>1087.7</ele>
        <time>2024-01-07T14:03:53Z</time>
      </trkpt>
      <trkpt lat="46.83446" lon="6.4006">
        <ele>1085.8</ele>
        <time>2024-01-07T14:03:59Z</time>
      </trkpt>
      <trkpt lat="46.8345" lon="6.40056">
        <ele>1085.4</ele>
        <time>2024-01-07T14:04:01Z</time>
      </trkpt>
    </trkseg>
  </trk>
</gpx>